Copenhagen, Denmark

9:07 PM CEST on September 21, 2014 (GMT +0200)
Kastrup | Change Station
CLOSE
Current Station
Personal Weather Station
Location: Kastrup,
Elevation: 13 ft
Nearby Weather Stations

Elev 13 ft 55.64 °N, 12.60 °E | Updated 2 seconds ago

Partly Cloudy
Partly Cloudy
55.9 °F
Feels Like 55.9 °F
N
2.2
Wind Variable Wind from NW
Gusts 6.0 mph

Today
High -- | Low -- °F
--% Chance of Precip.
Yesterday
High -- | Low -- °F
Precip. -- in
6:52 AM 7:11 PM
Waning Crescent, 6% visible
Pressure 29.74 in
Visibility 6.2 miles
Clouds Few 2200 ft
Dew Point 52 °F
Humidity 88%
Rainfall 0.09 in
Snow Depth Not available.
UV 0 out of 12
Pollen Not available.
Air Quality Not available.
Flu Activity Not available.
METAR EKCH 211850Z 29008KT 9999 FEW022 13/11 Q1007 NOSIG

More Conditions Fewer Conditions

Pressure 29.74 in
Visibility 6.2 miles
Clouds Few 2200 ft
Dew Point 52 °F
Humidity 88%
Rainfall 0.09 in
Snow Depth Not available.
UV 0 out of 12
Pollen Not available.
Air Quality Not available.
Flu Activity Not available.
METAR EKCH 211850Z 29008KT 9999 FEW022 13/11 Q1007 NOSIG

More Conditions Fewer Conditions

10-Day Weather Forecast

Almanac

Astronomy

Sep. 21, 2014 Rise Set
Actual Time 6:52 AM CEST 7:11 PM CEST
Civil Twilight 6:15 AM CEST 7:48 PM CEST
Nautical Twilight 5:31 AM CEST 8:32 PM CEST
Astronomical Twilight 4:44 AM CEST 9:18 PM CEST
Moon 3:48 AM CEST 5:55 PM CEST
Length of Visible Light 13h 32m
Length of Day
12h 19m
Tomorrow will be 4m 34s shorter.
Waning Crescent, 6% of the Moon is Illuminated
Today
Waning Crescent
Sep 24
New
Oct 1
First Quarter
Oct 8
Full
Oct 15
Last Quarter

Today's Extremes

Country Highs Country Lows

Community

WunderPhotos

Upload Photos

1,755,226 photos uploaded!

Nearby

Snow Depth

Not available.

Earthquake Activity

City Distance Mag. Time & Date
No recent earthquake activity has been reported nearby.
Minimum magnitude displayed is 2.5.

Coastal Water Temperatures

Place Temperature
No Stations Reporting

Nearby Weather Stations